createdAt,value
2024-04-22T00:05:51.165Z,24.1
2024-04-22T00:15:50.379Z,24.1
2024-04-22T00:25:49.578Z,24.1
2024-04-22T00:35:48.799Z,24.1
2024-04-22T00:45:47.985Z,24.1
2024-04-22T00:55:47.257Z,24.1
2024-04-22T01:05:46.405Z,24
2024-04-22T01:15:45.620Z,24.1
2024-04-22T01:25:44.842Z,24
2024-04-22T01:35:44.039Z,24
2024-04-22T01:45:43.243Z,24
2024-04-22T01:55:42.481Z,24
2024-04-22T02:05:41.632Z,24
2024-04-22T02:15:40.851Z,24
2024-04-22T02:25:40.133Z,23.9
2024-04-22T02:35:39.269Z,23.9
2024-04-22T02:45:38.451Z,23.9
2024-04-22T02:55:37.690Z,23.9
2024-04-22T03:06:04.794Z,23.9
2024-04-22T03:16:04.018Z,23.9
2024-04-22T03:26:03.211Z,23.9
2024-04-22T03:36:02.426Z,23.9
2024-04-22T03:46:01.624Z,23.9
2024-04-22T03:56:00.837Z,23.9
2024-04-22T04:06:00.048Z,23.9
2024-04-22T04:15:59.415Z,23.9
2024-04-22T04:25:58.584Z,23.9
2024-04-22T04:35:57.878Z,23.9
2024-04-22T04:45:57.141Z,23.9
2024-04-22T04:55:56.426Z,23.8
2024-04-22T05:05:55.618Z,23.9
2024-04-22T05:15:54.826Z,23.8
2024-04-22T05:25:54.049Z,23.8
2024-04-22T05:35:53.242Z,23.8
2024-04-22T05:45:52.437Z,23.8
2024-04-22T05:55:51.697Z,23.8
2024-04-22T06:05:50.851Z,23.8
2024-04-22T06:15:50.090Z,23.9
2024-04-22T06:25:49.272Z,23.9
2024-04-22T06:35:48.463Z,23.9
2024-04-22T06:45:47.649Z,23.9
2024-04-22T06:55:47.106Z,23.9
2024-04-22T07:05:46.064Z,23.9
2024-04-22T07:15:45.281Z,23.9
2024-04-22T07:25:44.577Z,23.9
2024-04-22T07:35:43.693Z,23.9
2024-04-22T07:45:42.900Z,23.9
2024-04-22T07:55:42.147Z,24.1
2024-04-22T08:05:41.282Z,24.1
2024-04-22T08:15:40.509Z,24.2
2024-04-22T08:25:39.748Z,24.3
2024-04-22T08:35:38.909Z,24.3
2024-04-22T08:45:38.097Z,24.4
2024-04-22T08:55:37.320Z,24.4
2024-04-22T09:06:05.020Z,24.4
2024-04-22T09:16:04.165Z,24.4
2024-04-22T09:26:03.523Z,24.5
2024-04-22T09:36:02.603Z,24.6
2024-04-22T09:46:01.749Z,24.6
2024-04-22T09:56:01.051Z,24.6
2024-04-22T10:06:03.516Z,24.6
2024-04-22T10:15:59.453Z,24.6
2024-04-22T10:25:58.741Z,24.5
2024-04-22T10:35:58.001Z,24.5
2024-04-22T10:45:57.255Z,24.5
2024-04-22T10:55:56.555Z,24.4
2024-04-22T11:05:55.728Z,24.4
2024-04-22T11:15:54.957Z,24.5
2024-04-22T11:25:54.139Z,24.5
2024-04-22T11:35:53.334Z,24.5
2024-04-22T11:45:52.527Z,24.5
2024-04-22T11:55:51.816Z,24.5
2024-04-22T12:05:50.953Z,24.5
2024-04-22T12:15:50.140Z,24.5
2024-04-22T12:25:49.530Z,24.5
2024-04-22T12:35:48.572Z,24.5
2024-04-22T12:45:47.748Z,24.5
2024-04-22T12:55:46.957Z,24.4
2024-04-22T13:05:46.134Z,24.4
2024-04-22T13:15:46.338Z,24.4
2024-04-22T13:25:45.547Z,24.4
2024-04-22T13:35:44.736Z,24.4
2024-04-22T13:45:43.916Z,24.4
2024-04-22T13:55:43.160Z,24.3
2024-04-22T14:05:42.317Z,24.3
2024-04-22T14:15:45.320Z,24.3
2024-04-22T14:25:40.772Z,24.3
2024-04-22T14:35:39.941Z,24.3
2024-04-22T14:45:39.127Z,24.3
2024-04-22T14:55:38.691Z,24.3
2024-04-22T15:06:05.097Z,24.3
2024-04-22T15:16:04.318Z,24.3
2024-04-22T15:26:03.529Z,24.3
2024-04-22T15:36:02.722Z,24.3
2024-04-22T15:46:01.894Z,24.2
2024-04-22T15:56:01.162Z,24.2
2024-04-22T16:06:00.351Z,24.2
2024-04-22T16:15:59.645Z,24.2
2024-04-22T16:25:58.926Z,24.2
2024-04-22T16:35:58.226Z,24.2
2024-04-22T16:45:57.518Z,24.2
2024-04-22T16:55:56.851Z,24.2
2024-04-22T17:05:56.016Z,24.2
2024-04-22T17:15:55.239Z,24.2
2024-04-22T17:25:54.519Z,24.2
2024-04-22T17:35:53.652Z,24.2
2024-04-22T17:45:52.846Z,24.1
2024-04-22T17:55:52.143Z,24.2
2024-04-22T18:05:51.251Z,24.1
2024-04-22T18:15:50.466Z,24.2
2024-04-22T18:25:51.242Z,24.1
2024-04-22T18:35:48.872Z,24.1
2024-04-22T18:45:48.061Z,24.1
2024-04-22T18:55:47.344Z,24.1
2024-04-22T19:05:46.471Z,24.1
2024-04-22T19:15:45.700Z,24.1
2024-04-22T19:25:44.984Z,24.1
2024-04-22T19:35:49.664Z,24.1
2024-04-22T19:45:43.293Z,24.1
2024-04-22T19:55:42.516Z,24.1
2024-04-22T20:05:41.712Z,24.1
2024-04-22T20:15:40.938Z,24.1
2024-04-22T20:25:40.140Z,24.1
2024-04-22T20:35:40.081Z,24.1
2024-04-22T20:45:38.522Z,24.1
2024-04-22T20:55:37.794Z,24.1
2024-04-22T21:06:04.306Z,24.1
2024-04-22T21:16:03.464Z,24.1
2024-04-22T21:26:02.685Z,24.1
2024-04-22T21:36:01.865Z,24.1
2024-04-22T21:46:01.068Z,24.1
2024-04-22T21:56:00.302Z,24.1
2024-04-22T22:05:59.517Z,24.1
2024-04-22T22:15:58.814Z,24.1
2024-04-22T22:25:58.142Z,24.1
2024-04-22T22:35:57.407Z,24
2024-04-22T22:45:56.680Z,24.1
2024-04-22T22:55:56.028Z,24.1
2024-04-22T23:05:55.178Z,24.1
2024-04-22T23:15:54.399Z,24
2024-04-22T23:25:53.659Z,24
2024-04-22T23:35:52.814Z,24
2024-04-22T23:45:51.999Z,24.1
2024-04-22T23:55:51.275Z,24
